Time,TemperatureF,DewpointF,PressureIn,WindDirection,WindDirectionDegrees,WindSpeedMPH,WindSpeedGustMPH,Humidity,HourlyPrecipIn,Conditions,Clouds,dailyrainin,SoftwareType,DateUTC
2013-03-06 00:01:00,37.9,25.7,29.74,North,0,2.7,-999.0,61,-99.99,,,0.00,Acu-Link.com,2013-03-06 05:01:00,
2013-03-06 00:17:00,37.4,25.2,29.73,SW,225,6.3,-999.0,61,-99.99,,,0.00,Acu-Link.com,2013-03-06 05:17:00,
2013-03-06 00:32:00,34.7,29.5,29.76,WNW,292,13.0,-999.0,81,-99.99,,,0.00,Acu-Link.com,2013-03-06 05:32:00,
2013-03-06 00:47:00,33.3,29.0,29.75,WNW,292,3.7,-999.0,84,-99.99,,,0.00,Acu-Link.com,2013-03-06 05:47:00,
2013-03-06 01:11:00,33.4,27.3,29.74,NNE,22,3.2,-999.0,78,-99.99,,,0.00,Acu-Link.com,2013-03-06 06:11:00,
2013-03-06 01:27:00,33.8,24.0,29.77,WNW,292,2.7,-999.0,67,-99.99,,,0.00,Acu-Link.com,2013-03-06 06:27:00,
2013-03-06 01:42:00,33.4,24.3,29.78,NNW,337,4.2,-999.0,69,-99.99,,,0.00,Acu-Link.com,2013-03-06 06:42:00,
2013-03-06 01:57:00,33.4,25.0,29.78,South,180,1.7,-999.0,71,-99.99,,,0.00,Acu-Link.com,2013-03-06 06:57:00,
2013-03-06 02:12:00,33.3,24.9,29.78,NW,315,6.8,-999.0,71,-99.99,,,0.00,Acu-Link.com,2013-03-06 07:12:00,
2013-03-06 02:27:00,33.1,23.0,29.79,North,0,1.7,-999.0,66,-99.99,,,0.00,Acu-Link.com,2013-03-06 07:27:00,
2013-03-06 02:43:00,33.3,23.2,29.77,NE,45,2.2,-999.0,66,-99.99,,,0.00,Acu-Link.com,2013-03-06 07:43:00,
2013-03-06 02:58:00,32.9,22.8,29.78,WNW,292,1.7,-999.0,66,-99.99,,,0.00,Acu-Link.com,2013-03-06 07:58:00,
2013-03-06 03:13:00,32.7,22.6,29.78,SW,225,5.3,-999.0,66,-99.99,,,0.00,Acu-Link.com,2013-03-06 08:13:00,
2013-03-06 03:29:00,32.7,23.0,29.77,West,270,2.7,-999.0,67,-99.99,,,0.00,Acu-Link.com,2013-03-06 08:29:00,
2013-03-06 03:44:00,32.7,23.0,29.77,NW,315,4.2,-999.0,67,-99.99,,,0.00,Acu-Link.com,2013-03-06 08:44:00,
2013-03-06 03:59:00,32.9,23.2,29.77,West,270,3.2,-999.0,67,-99.99,,,0.00,Acu-Link.com,2013-03-06 08:59:00,
2013-03-06 04:23:00,32.9,23.5,29.78,West,270,3.7,-999.0,68,-99.99,,,0.00,Acu-Link.com,2013-03-06 09:23:00,
2013-03-06 04:38:00,33.1,23.4,29.79,West,270,6.3,-999.0,67,-99.99,,,0.00,Acu-Link.com,2013-03-06 09:38:00,
2013-03-06 04:53:00,33.1,24.1,29.79,SW,225,3.2,-999.0,69,-99.99,,,0.00,Acu-Link.com,2013-03-06 09:53:00,
2013-03-06 05:08:00,33.3,23.9,29.80,NNW,337,3.7,-999.0,68,-99.99,,,0.00,Acu-Link.com,2013-03-06 10:08:00,
2013-03-06 05:23:00,33.3,24.2,29.80,North,0,3.2,-999.0,69,-99.99,,,0.00,Acu-Link.com,2013-03-06 10:23:00,
2013-03-06 05:39:00,33.4,24.0,29.81,WNW,292,2.7,-999.0,68,-99.99,,,0.00,Acu-Link.com,2013-03-06 10:39:00,
2013-03-06 05:54:00,33.6,24.2,29.82,NNW,337,2.7,-999.0,68,-99.99,,,0.00,Acu-Link.com,2013-03-06 10:54:00,
2013-03-06 06:09:00,33.6,24.5,29.83,WNW,292,4.2,-999.0,69,-99.99,,,0.00,Acu-Link.com,2013-03-06 11:09:00,
2013-03-06 06:24:00,33.6,24.9,29.84,NE,45,2.2,-999.0,70,-99.99,,,0.00,Acu-Link.com,2013-03-06 11:24:00,
2013-03-06 06:39:00,33.6,24.5,29.84,NNW,337,1.7,-999.0,69,-99.99,,,0.00,Acu-Link.com,2013-03-06 11:39:00,
2013-03-06 06:55:00,33.6,24.5,29.85,SSW,202,2.7,-999.0,69,-99.99,,,0.00,Acu-Link.com,2013-03-06 11:55:00,
2013-03-06 07:10:00,33.6,24.5,29.86,NNE,22,8.3,-999.0,69,-99.99,,,0.00,Acu-Link.com,2013-03-06 12:10:00,
2013-03-06 07:25:00,33.6,24.5,29.86,NW,315,3.7,-999.0,69,-99.99,,,0.00,Acu-Link.com,2013-03-06 12:25:00,
2013-03-06 07:40:00,33.8,24.7,29.87,NNW,337,8.3,-999.0,69,-99.99,,,0.00,Acu-Link.com,2013-03-06 12:40:00,
2013-03-06 07:55:00,33.8,25.1,29.87,WSW,247,5.3,-999.0,70,-99.99,,,0.00,Acu-Link.com,2013-03-06 12:55:00,
2013-03-06 08:11:00,33.8,25.4,29.88,NW,315,2.2,-999.0,71,-99.99,,,0.00,Acu-Link.com,2013-03-06 13:11:00,
2013-03-06 08:26:00,33.8,26.1,29.90,North,0,5.8,-999.0,73,-99.99,,,0.00,Acu-Link.com,2013-03-06 13:26:00,
2013-03-06 08:41:00,34.2,26.5,29.90,NW,315,5.8,-999.0,73,-99.99,,,0.00,Acu-Link.com,2013-03-06 13:41:00,
2013-03-06 08:56:00,35.4,26.9,29.90,NNW,337,5.3,-999.0,71,-99.99,,,0.00,Acu-Link.com,2013-03-06 13:56:00,
2013-03-06 09:12:00,35.8,26.6,29.92,NNW,337,4.2,-999.0,69,-99.99,,,0.00,Acu-Link.com,2013-03-06 14:12:00,
2013-03-06 09:27:00,35.2,26.4,29.91,SSW,202,5.3,-999.0,70,-99.99,,,0.00,Acu-Link.com,2013-03-06 14:27:00,
2013-03-06 09:42:00,35.2,26.4,29.93,NNE,22,4.2,-999.0,70,-99.99,,,0.00,Acu-Link.com,2013-03-06 14:42:00,
2013-03-06 09:58:00,35.6,26.1,29.93,WNW,292,3.7,-999.0,68,-99.99,,,0.00,Acu-Link.com,2013-03-06 14:58:00,
2013-03-06 10:13:00,36.0,26.5,29.94,WNW,292,7.3,-999.0,68,-99.99,,,0.00,Acu-Link.com,2013-03-06 15:13:00,
2013-03-06 10:28:00,36.1,26.6,29.94,NW,315,4.2,-999.0,68,-99.99,,,0.00,Acu-Link.com,2013-03-06 15:28:00,
2013-03-06 10:43:00,35.6,26.1,29.95,NNW,337,6.8,-999.0,68,-99.99,,,0.00,Acu-Link.com,2013-03-06 15:43:00,
2013-03-06 10:58:00,35.4,25.9,29.95,NNW,337,3.7,-999.0,68,-99.99,,,0.00,Acu-Link.com,2013-03-06 15:58:00,
2013-03-06 11:13:00,35.6,26.1,29.96,NNW,337,4.7,-999.0,68,-99.99,,,0.00,Acu-Link.com,2013-03-06 16:13:00,
2013-03-06 11:29:00,35.4,26.3,29.98,ESE,112,4.7,-999.0,69,-99.99,,,0.00,Acu-Link.com,2013-03-06 16:29:00,
2013-03-06 11:44:00,35.4,26.3,29.97,SW,225,3.2,-999.0,69,-99.99,,,0.00,Acu-Link.com,2013-03-06 16:44:00,
2013-03-06 11:59:00,35.8,26.6,29.98,WNW,292,6.8,-999.0,69,-99.99,,,0.00,Acu-Link.com,2013-03-06 16:59:00,
2013-03-06 12:15:00,36.0,27.2,29.98,West,270,5.3,-999.0,70,-99.99,,,0.00,Acu-Link.com,2013-03-06 17:15:00,
2013-03-06 12:30:00,36.0,27.2,29.98,NNE,22,4.2,-999.0,70,-99.99,,,0.00,Acu-Link.com,2013-03-06 17:30:00,
2013-03-06 12:45:00,36.3,27.1,29.98,West,270,6.8,-999.0,69,-99.99,,,0.00,Acu-Link.com,2013-03-06 17:45:00,
2013-03-06 13:00:00,36.5,27.3,29.99,NNE,22,5.8,-999.0,69,-99.99,,,0.00,Acu-Link.com,2013-03-06 18:00:00,
2013-03-06 13:16:00,37.4,28.2,29.99,ESE,112,4.2,-999.0,69,-99.99,,,0.00,Acu-Link.com,2013-03-06 18:16:00,
2013-03-06 13:31:00,37.6,28.0,29.98,NNW,337,3.7,-999.0,68,-99.99,,,0.00,Acu-Link.com,2013-03-06 18:31:00,
2013-03-06 13:46:00,38.5,29.2,29.98,North,0,1.7,-999.0,69,-99.99,,,0.00,Acu-Link.com,2013-03-06 18:46:00,
2013-03-06 14:01:00,39.4,29.7,29.98,WNW,292,6.3,-999.0,68,-99.99,,,0.00,Acu-Link.com,2013-03-06 19:01:00,
2013-03-06 14:16:00,39.2,29.2,29.99,NNW,337,5.3,-999.0,67,-99.99,,,0.00,Acu-Link.com,2013-03-06 19:16:00,
2013-03-06 14:31:00,39.2,29.2,29.99,North,0,4.7,-999.0,67,-99.99,,,0.00,Acu-Link.com,2013-03-06 19:31:00,
2013-03-06 14:47:00,39.6,28.8,29.99,East,90,3.2,-999.0,65,-99.99,,,0.00,Acu-Link.com,2013-03-06 19:47:00,
2013-03-06 15:02:00,39.7,28.5,29.99,West,270,3.7,-999.0,64,-99.99,,,0.00,Acu-Link.com,2013-03-06 20:02:00,
2013-03-06 15:17:00,40.5,28.5,30.00,ENE,67,5.8,-999.0,62,-99.99,,,0.00,Acu-Link.com,2013-03-06 20:17:00,
2013-03-06 15:32:00,41.5,29.1,30.00,NW,315,2.2,-999.0,61,-99.99,,,0.00,Acu-Link.com,2013-03-06 20:32:00,
2013-03-06 15:47:00,40.6,28.2,30.00,NNW,337,3.7,-999.0,61,-99.99,,,0.00,Acu-Link.com,2013-03-06 20:47:00,
2013-03-06 16:02:00,41.5,28.7,30.02,North,0,4.2,-999.0,60,-99.99,,,0.00,Acu-Link.com,2013-03-06 21:02:00,
2013-03-06 16:18:00,40.6,28.2,30.02,North,0,4.2,-999.0,61,-99.99,,,0.00,Acu-Link.com,2013-03-06 21:18:00,
2013-03-06 16:33:00,40.6,28.6,30.02,ESE,112,3.2,-999.0,62,-99.99,,,0.00,Acu-Link.com,2013-03-06 21:33:00,
2013-03-06 16:48:00,40.3,28.3,30.03,West,270,3.7,-999.0,62,-99.99,,,0.00,Acu-Link.com,2013-03-06 21:48:00,
2013-03-06 17:03:00,39.7,28.2,30.03,WNW,292,2.7,-999.0,63,-99.99,,,0.00,Acu-Link.com,2013-03-06 22:03:00,
2013-03-06 17:19:00,39.4,28.3,30.03,North,0,3.7,-999.0,64,-99.99,,,0.00,Acu-Link.com,2013-03-06 22:19:00,
2013-03-06 17:34:00,39.2,28.1,30.03,NNW,337,6.8,-999.0,64,-99.99,,,0.00,Acu-Link.com,2013-03-06 22:34:00,
2013-03-06 17:49:00,39.2,28.1,30.03,NW,315,2.2,-999.0,64,-99.99,,,0.00,Acu-Link.com,2013-03-06 22:49:00,
2013-03-06 18:04:00,38.8,28.1,30.03,WNW,292,4.2,-999.0,65,-99.99,,,0.00,Acu-Link.com,2013-03-06 23:04:00,
2013-03-06 18:19:00,38.5,27.8,30.03,North,0,3.7,-999.0,65,-99.99,,,0.00,Acu-Link.com,2013-03-06 23:19:00,
2013-03-06 18:35:00,38.1,28.1,30.04,WNW,292,2.7,-999.0,67,-99.99,,,0.00,Acu-Link.com,2013-03-06 23:35:00,
2013-03-06 18:50:00,37.8,27.8,30.05,NW,315,2.2,-999.0,67,-99.99,,,0.00,Acu-Link.com,2013-03-06 23:50:00,
2013-03-06 19:05:00,37.2,27.6,30.06,WNW,292,3.2,-999.0,68,-99.99,,,0.00,Acu-Link.com,2013-03-07 00:05:00,
2013-03-06 19:20:00,37.0,27.4,30.06,WNW,292,5.8,-999.0,68,-99.99,,,0.00,Acu-Link.com,2013-03-07 00:20:00,
2013-03-06 19:36:00,36.9,27.7,30.06,WNW,292,2.7,-999.0,69,-99.99,,,0.00,Acu-Link.com,2013-03-07 00:36:00,
2013-03-06 19:51:00,36.7,27.5,30.06,East,90,2.7,-999.0,69,-99.99,,,0.00,Acu-Link.com,2013-03-07 00:51:00,
2013-03-06 20:06:00,36.3,27.1,30.06,West,270,2.2,-999.0,69,-99.99,,,0.00,Acu-Link.com,2013-03-07 01:06:00,
2013-03-06 20:22:00,36.3,27.1,30.07,NNW,337,3.7,-999.0,69,-99.99,,,0.00,Acu-Link.com,2013-03-07 01:22:00,
2013-03-06 20:37:00,36.1,26.9,30.06,WNW,292,2.2,-999.0,69,-99.99,,,0.00,Acu-Link.com,2013-03-07 01:37:00,
2013-03-06 20:52:00,35.8,27.0,30.07,NNW,337,3.7,-999.0,70,-99.99,,,0.00,Acu-Link.com,2013-03-07 01:52:00,
2013-03-06 21:08:00,36.0,27.2,30.07,NW,315,3.7,-999.0,70,-99.99,,,0.00,Acu-Link.com,2013-03-07 02:08:00,
2013-03-06 21:23:00,35.8,27.0,30.07,NNE,22,6.3,-999.0,70,-99.99,,,0.00,Acu-Link.com,2013-03-07 02:23:00,
2013-03-06 21:38:00,35.4,26.6,30.07,West,270,4.7,-999.0,70,-99.99,,,0.00,Acu-Link.com,2013-03-07 02:38:00,
2013-03-06 21:53:00,35.4,26.9,30.06,NW,315,2.2,-999.0,71,-99.99,,,0.00,Acu-Link.com,2013-03-07 02:53:00,
2013-03-06 22:08:00,35.2,26.8,30.06,WSW,247,2.7,-999.0,71,-99.99,,,0.00,Acu-Link.com,2013-03-07 03:08:00,
2013-03-06 22:24:00,35.1,27.0,30.06,North,0,5.3,-999.0,72,-99.99,,,0.00,Acu-Link.com,2013-03-07 03:24:00,
2013-03-06 22:39:00,34.9,26.8,30.05,ESE,112,2.2,-999.0,72,-99.99,,,0.00,Acu-Link.com,2013-03-07 03:39:00,
2013-03-06 22:54:00,34.9,26.8,30.04,NW,315,3.7,-999.0,72,-99.99,,,0.00,Acu-Link.com,2013-03-07 03:54:00,
2013-03-06 23:10:00,34.7,26.6,30.05,NNW,337,4.2,-999.0,72,-99.99,,,0.00,Acu-Link.com,2013-03-07 04:10:00,
2013-03-06 23:25:00,34.7,26.6,30.05,West,270,3.2,-999.0,72,-99.99,,,0.00,Acu-Link.com,2013-03-07 04:25:00,
2013-03-06 23:40:00,34.5,26.4,30.05,NNE,22,3.7,-999.0,72,-99.99,,,0.00,Acu-Link.com,2013-03-07 04:40:00,
2013-03-06 23:55:00,34.5,26.4,30.04,NNW,337,4.7,-999.0,72,-99.99,,,0.00,Acu-Link.com,2013-03-07 04:55:00,